Portada
METAR-TAF:

METAR-TAF

Aeroports :

Rodrigues, Maurici

latitud: 19-41S, longitud: 063-25E, altitud: 58 m

Observació

L'informe es va fer fa 1 hora i 12 minuts, a les 03:00 UTC
Vent 7 kt del Est
Temperatura 26°C
Humitat 89%
Pressió 1011 hPa
Visibilitat 10 km o més
Núvols disperses a una alçada de 1600 ft

METAR: FIMR 290300Z 09007KT 9999 SCT016 26/24 Q1011

Hora: 08:12 (04:12 UTC)

Pronòstic

L'informe es va fer fa 4 hores i 7 minuts, a les 00:05 UTC
Pronòstic vàlid del 29 a les 00 UTC al 29 a les 18 UTC
Vent 15 kt del Est amb ràfegues de 25 kt
Visibilitat 10 km o més
Núvols disperses a una alçada de 1700 ft
Temporalment
l' 29 a les 03 UTC al 29 a les 09 UTC
Visibilitat: 7000 m
Escasses núvols a una alçada de 800 ft
Cel ennuvolat a una alçada de 1600 ft
xàfecs de pluja

TAF: FIMR 290005Z 2900/2918 09015G25KT 9999 SCT017 TEMPO 2903/2909 7000 -SHRA FEW008 BKN016

Observacions i pronòstics meteorològics de més de 4000 aeroports (METAR i TAF).

Les estacions disponibles són els punts grocs i vermells al mapa.

Posi el ratolí al punt desitjat per veure el nom de l'estació.

Feu clic per veure les observacions i els pronòstics meteorològics.

Per canviar el mapa: feu clic els botons verds amb una creu de color negre per apropar; al botó verd amb un guió per allunyar la imatge; o en les fletxes verdes per a mapes adjacents.


METAR-TAF: